Time;durP1;ratioP1;P1;durP2;ratioP2;P2;SDS_P1;SDS_P2;PMS_P1;PMS_P2;Temp;Humidity;BMP_temperature;BMP_pressure;BME280_temperature;BME280_humidity;BME280_pressure;Samples;Min_cycle;Max_cycle;Signal;HPM_P1;HPM_P2
2022/11/06 00:00:38;;;;;;;11.20;6.20;;;;;;;7.99;100.00;98692.03;4484492;31;20521;-79
2022/11/06 00:03:06;;;;;;;11.82;6.47;;;;;;;7.99;100.00;98691.19;4484474;31;20115;-78
2022/11/06 00:08:37;;;;;;;12.57;7.07;;;;;;;7.95;100.00;98695.84;4476213;31;20216;-78
2022/11/06 00:11:12;;;;;;;14.20;6.97;;;;;;;8.00;100.00;98704.09;4468596;32;20057;-78
2022/11/06 00:13:40;;;;;;;14.27;7.35;;;;;;;7.86;100.00;98701.78;4468656;32;20096;-79
2022/11/06 00:16:09;;;;;;;12.75;6.20;;;;;;;7.89;100.00;98701.53;4468611;32;20518;-79
2022/11/06 00:18:37;;;;;;;13.43;6.62;;;;;;;7.87;100.00;98700.81;4468650;32;20430;-78
2022/11/06 00:21:09;;;;;;;13.52;6.40;;;;;;;7.82;100.00;98703.78;4468475;32;20419;-78
2022/11/06 00:23:37;;;;;;;13.13;6.60;;;;;;;7.84;100.00;98703.66;4468636;32;20093;-79
2022/11/06 00:26:08;;;;;;;12.95;6.00;;;;;;;7.82;100.00;98706.37;4469744;32;20093;-78
2022/11/06 00:28:35;;;;;;;10.70;6.53;;;;;;;7.80;100.00;98704.87;4470639;32;20110;-78
2022/11/06 00:31:04;;;;;;;12.27;5.90;;;;;;;7.81;100.00;98696.09;4470591;32;20420;-79
2022/11/06 00:33:32;;;;;;;10.77;5.20;;;;;;;7.83;100.00;98699.41;4470466;32;20127;-78
2022/11/06 00:36:02;;;;;;;12.90;6.05;;;;;;;7.89;100.00;98701.53;4470353;32;20085;-78
2022/11/06 00:38:29;;;;;;;12.18;5.87;;;;;;;7.84;100.00;98698.44;4470454;32;20076;-78
2022/11/06 00:40:56;;;;;;;13.48;5.62;;;;;;;7.87;100.00;98698.19;4470533;32;20152;-78
2022/11/06 00:43:23;;;;;;;12.85;6.12;;;;;;;7.88;100.00;98706.88;4470419;32;20454;-78
2022/11/06 00:45:51;;;;;;;10.98;6.10;;;;;;;7.86;100.00;98701.78;4470709;32;20108;-79
2022/11/06 00:48:18;;;;;;;10.95;5.87;;;;;;;7.89;100.00;98698.09;4470381;32;20108;-78
2022/11/06 00:50:45;;;;;;;10.25;5.57;;;;;;;7.90;100.00;98697.13;4470500;32;20180;-78
2022/11/06 00:53:12;;;;;;;8.63;4.93;;;;;;;7.91;100.00;98704.84;4470433;32;20112;-78
2022/11/06 00:55:40;;;;;;;10.93;5.60;;;;;;;7.87;100.00;98703.41;4470542;32;20147;-79
2022/11/06 00:58:07;;;;;;;9.98;5.25;;;;;;;7.90;100.00;98700.59;4471974;32;20115;-78
2022/11/06 01:00:34;;;;;;;9.30;5.28;;;;;;;7.92;100.00;98700.47;4486103;31;20155;-78
2022/11/06 01:03:01;;;;;;;11.57;5.50;;;;;;;7.95;100.00;98701.06;4485962;31;20521;-79
2022/11/06 01:05:28;;;;;;;10.65;5.55;;;;;;;7.93;100.00;98708.19;4485949;31;20153;-79
2022/11/06 01:07:55;;;;;;;9.88;4.95;;;;;;;7.90;100.00;98699.75;4480391;31;20104;-78
2022/11/06 01:10:23;;;;;;;9.85;5.18;;;;;;;7.94;100.00;98695.94;4470255;32;20556;-78
2022/11/06 01:12:50;;;;;;;10.55;5.57;;;;;;;8.00;100.00;98704.09;4469874;32;20108;-79
2022/11/06 01:15:17;;;;;;;8.68;4.93;;;;;;;7.96;100.00;98707.94;4470222;32;20122;-79
2022/11/06 01:17:44;;;;;;;9.68;5.37;;;;;;;7.90;100.00;98713.63;4470389;32;20112;-79
2022/11/06 01:20:11;;;;;;;10.23;5.00;;;;;;;7.94;100.00;98704.59;4470071;32;20510;-79
2022/11/06 01:22:38;;;;;;;9.50;5.32;;;;;;;7.93;100.00;98708.19;4470011;32;20574;-79
2022/11/06 01:25:06;;;;;;;9.98;5.43;;;;;;;7.92;100.00;98706.50;4470186;32;20160;-79
2022/11/06 01:27:34;;;;;;;10.57;5.07;;;;;;;7.98;100.00;98716.47;4470225;32;20188;-79
2022/11/06 01:30:01;;;;;;;10.23;5.25;;;;;;;7.95;100.00;98713.28;4470078;32;20093;-79
2022/11/06 01:32:28;;;;;;;10.82;5.50;;;;;;;7.94;100.00;98712.41;4470103;32;20148;-79
2022/11/06 01:34:55;;;;;;;11.07;5.25;;;;;;;7.92;100.00;98705.69;4470006;32;20101;-79
2022/11/06 01:37:22;;;;;;;11.10;5.25;;;;;;;7.93;100.00;98713.41;4468985;32;20172;-79
2022/11/06 01:39:49;;;;;;;8.07;4.60;;;;;;;7.96;100.00;98707.94;4470013;32;20210;-79
2022/11/06 01:42:19;;;;;;;8.68;4.03;;;;;;;8.00;100.00;98709.31;4469915;32;20118;-79
2022/11/06 01:45:09;;;;;;;8.52;4.40;;;;;;;7.98;100.00;98713.84;4469966;32;20112;-79
2022/11/06 01:47:37;;;;;;;7.85;4.07;;;;;;;8.03;100.00;98707.44;4468845;32;20100;-79
2022/11/06 01:50:07;;;;;;;9.60;4.53;;;;;;;8.02;100.00;98709.19;4469945;32;20097;-79
2022/11/06 01:52:34;;;;;;;9.20;4.72;;;;;;;7.98;100.00;98702.59;4470038;32;20084;-79
2022/11/06 01:55:15;;;;;;;11.27;5.85;;;;;;;7.97;100.00;98708.75;4469969;32;20447;-79
2022/11/06 01:57:42;;;;;;;12.27;5.47;;;;;;;8.00;100.00;98714.53;4468606;32;20096;-79
2022/11/06 02:00:11;;;;;;;10.80;5.45;;;;;;;7.96;100.00;98707.94;4484537;32;20206;-79
2022/11/06 02:02:39;;;;;;;11.52;5.15;;;;;;;7.87;100.00;98707.81;4484175;32;20124;-80
2022/11/06 02:05:07;;;;;;;8.05;4.62;;;;;;;7.89;100.00;98706.75;4485383;31;20088;-79
2022/11/06 02:07:34;;;;;;;11.75;6.37;;;;;;;7.91;100.00;98720.50;4482252;31;20173;-79
2022/11/06 02:10:03;;;;;;;11.77;4.85;;;;;;;7.95;100.00;98716.69;4468473;32;20164;-79
2022/11/06 02:12:48;;;;;;;11.75;5.72;;;;;;;8.01;100.00;98720.63;4469863;32;20172;-80
2022/11/06 02:15:37;;;;;;;12.35;5.30;;;;;;;7.93;100.00;98722.97;4470097;32;20131;-79
2022/11/06 02:18:12;;;;;;;11.93;5.50;;;;;;;8.02;100.00;98722.25;4469761;32;20115;-79
2022/11/06 02:20:56;;;;;;;9.70;5.40;;;;;;;7.93;100.00;98725.59;4468591;32;20096;-79
2022/11/06 02:23:45;;;;;;;9.57;5.37;;;;;;;7.93;100.00;98728.19;4469806;32;20500;-79
2022/11/06 02:26:34;;;;;;;11.80;5.37;;;;;;;7.96;100.00;98731.41;4468544;32;20100;-79
2022/11/06 02:29:19;;;;;;;11.63;5.28;;;;;;;7.95;100.00;98724.53;4469554;32;20556;-80
2022/11/06 02:31:47;;;;;;;9.75;4.50;;;;;;;8.00;100.00;98724.97;4469824;32;20483;-79
2022/11/06 02:34:17;;;;;;;8.48;4.65;;;;;;;7.99;100.00;98725.09;4468259;32;20127;-79
2022/11/06 02:36:57;;;;;;;10.50;4.70;;;;;;;8.02;100.00;98726.66;4468290;32;20507;-80
2022/11/06 02:39:27;;;;;;;10.80;4.95;;;;;;;7.96;100.00;98731.41;4468339;32;20088;-80
2022/11/06 02:41:56;;;;;;;9.55;4.85;;;;;;;7.99;100.00;98739.00;4468233;32;20097;-79
2022/11/06 02:44:25;;;;;;;10.30;5.00;;;;;;;7.97;100.00;98746.09;4468222;32;20104;-80
2022/11/06 02:46:55;;;;;;;9.70;5.07;;;;;;;8.00;100.00;98742.41;4468507;32;20117;-79
2022/11/06 02:49:27;;;;;;;9.63;5.12;;;;;;;8.04;100.00;98751.66;4469207;32;20586;-79
2022/11/06 02:51:58;;;;;;;8.75;4.43;;;;;;;8.05;100.00;98749.88;4469671;32;20072;-79
2022/11/06 02:54:28;;;;;;;9.48;4.97;;;;;;;8.08;100.00;98757.47;4468107;32;20119;-80
2022/11/06 02:56:57;;;;;;;11.18;5.00;;;;;;;8.07;100.00;98755.78;4468310;32;20120;-79
2022/11/06 02:59:32;;;;;;;9.48;5.22;;;;;;;8.04;100.00;98748.22;4458367;32;20169;-79
2022/11/06 03:02:01;;;;;;;12.13;5.85;;;;;;;8.06;100.00;98754.16;4452868;32;20167;-79
2022/11/06 03:04:38;;;;;;;11.30;5.20;;;;;;;8.01;100.00;98759.75;4453887;32;20252;-79
2022/11/06 03:07:19;;;;;;;11.95;5.30;;;;;;;7.98;100.00;98752.97;4453949;32;20093;-79
2022/11/06 03:09:47;;;;;;;9.05;5.22;;;;;;;8.05;100.00;98753.31;4468019;32;20139;-80
2022/11/06 03:12:25;;;;;;;10.43;5.60;;;;;;;8.03;100.00;98763.03;4468364;32;20081;-79
2022/11/06 03:14:59;;;;;;;10.15;4.75;;;;;;;8.04;100.00;98763.88;4469188;32;20848;-79
2022/11/06 03:17:40;;;;;;;11.57;5.35;;;;;;;8.02;100.00;98765.78;4469528;32;20148;-79
2022/11/06 03:20:20;;;;;;;11.50;5.20;;;;;;;7.98;100.00;98765.19;4468218;32;20545;-79
2022/11/06 03:22:53;;;;;;;9.38;5.12;;;;;;;7.98;100.00;98770.41;4468290;32;20225;-79
2022/11/06 03:26:12;;;;;;;9.63;5.12;;;;;;;8.00;100.00;98774.53;4469198;32;20144;-79
2022/11/06 03:28:51;;;;;;;11.52;5.25;;;;;;;8.05;100.00;98775.97;4407922;32;20177;-79
2022/11/06 03:31:31;;;;;;;12.00;5.12;;;;;;;8.01;100.00;98783.22;4407821;32;20155;-79
2022/11/06 03:34:06;;;;;;;10.48;4.65;;;;;;;8.03;100.00;98783.09;4407747;32;20082;-79
2022/11/06 03:36:35;;;;;;;9.50;5.05;;;;;;;8.04;100.00;98772.53;4407261;32;20443;-79
2022/11/06 03:39:06;;;;;;;9.20;5.22;;;;;;;8.07;100.00;98781.87;4407854;32;20320;-79
2022/11/06 03:41:48;;;;;;;9.43;4.62;;;;;;;7.96;100.00;98780.97;4407655;32;20180;-79
2022/11/06 03:44:18;;;;;;;11.88;4.37;;;;;;;7.98;100.00;98791.28;4407572;32;20563;-79
2022/11/06 03:46:52;;;;;;;9.70;4.68;;;;;;;8.00;100.00;98792.81;4420098;32;20113;-79
2022/11/06 03:49:25;;;;;;;9.10;5.10;;;;;;;7.97;100.00;98790.44;4407846;32;20165;-79
2022/11/06 03:51:57;;;;;;;8.60;4.72;;;;;;;8.06;100.00;98793.28;4420276;32;20163;-79
2022/11/06 03:54:34;;;;;;;9.43;4.62;;;;;;;8.09;100.00;98793.06;4407628;32;20443;-79
2022/11/06 03:57:07;;;;;;;14.02;4.57;;;;;;;8.11;100.00;98789.34;4407372;32;20156;-79
2022/11/06 03:59:39;;;;;;;7.55;4.55;;;;;;;8.04;100.00;98792.56;4396235;32;20130;-79
2022/11/06 04:02:07;;;;;;;8.90;4.65;;;;;;;8.00;100.00;98795.41;4392208;32;20183;-79
2022/11/06 04:04:40;;;;;;;9.10;4.43;;;;;;;7.97;100.00;98793.03;4440117;32;20176;-80
2022/11/06 04:07:13;;;;;;;14.48;4.97;;;;;;;7.95;100.00;98794.97;4453322;32;20460;-79
2022/11/06 04:15:17;;;;;;;8.98;5.00;;;;;;;7.96;100.00;98801.00;4467564;32;20149;-79
2022/11/06 04:17:44;;;;;;;8.60;4.72;;;;;;;7.93;100.00;98801.22;4467340;32;20168;-79
2022/11/06 04:21:20;;;;;;;14.25;5.47;;;;;;;7.98;100.00;98804.34;4467413;32;20126;-79
2022/11/06 04:23:43;;;;;;;9.13;5.15;;;;;;;7.94;100.00;98797.69;4468515;32;20112;-79
2022/11/06 04:26:38;;;;;;;9.63;5.25;;;;;;;7.93;100.00;98801.22;4468324;32;20106;-79
2022/11/06 04:29:46;;;;;;;10.50;4.68;;;;;;;8.02;100.00;98800.50;4467670;32;20100;-79
2022/11/06 04:32:23;;;;;;;8.77;4.95;;;;;;;7.96;100.00;98804.44;4468443;32;20109;-79
2022/11/06 04:35:11;;;;;;;10.15;5.60;;;;;;;7.97;100.00;98807.88;4467160;32;20544;-79
2022/11/06 04:37:48;;;;;;;9.07;5.05;;;;;;;7.97;100.00;98802.66;4468024;32;20085;-79
2022/11/06 04:40:32;;;;;;;10.27;5.18;;;;;;;7.97;100.00;98798.25;4466852;32;20104;-79
2022/11/06 04:43:05;;;;;;;13.27;6.03;;;;;;;7.91;100.00;98801.34;4467235;32;20138;-79
2022/11/06 04:45:36;;;;;;;10.60;5.78;;;;;;;7.85;100.00;98804.44;4468139;32;20114;-79
2022/11/06 04:48:04;;;;;;;10.20;5.93;;;;;;;7.81;100.00;98798.66;4466869;32;20102;-79
2022/11/06 04:50:35;;;;;;;13.85;6.78;;;;;;;7.75;100.00;98809.56;4467196;32;20089;-79
2022/11/06 04:53:04;;;;;;;13.30;6.68;;;;;;;7.63;100.00;98806.09;4466944;32;20129;-79
2022/11/06 04:55:31;;;;;;;15.10;7.03;;;;;;;7.70;100.00;98803.03;4466821;32;20525;-79
2022/11/06 04:57:58;;;;;;;12.50;6.47;;;;;;;7.71;100.00;98802.91;4468341;32;20135;-79
2022/11/06 05:00:25;;;;;;;12.25;6.55;;;;;;;7.68;100.00;98807.53;4483639;31;20156;-79
2022/11/06 05:02:52;;;;;;;13.25;6.40;;;;;;;7.66;100.00;98815.47;4483676;31;20116;-79
2022/11/06 05:05:19;;;;;;;13.45;6.93;;;;;;;7.70;100.00;98808.25;4483501;31;20156;-79
2022/11/06 05:07:46;;;;;;;12.60;6.62;;;;;;;7.74;100.00;98804.44;4479018;31;20089;-79
2022/11/06 05:10:13;;;;;;;11.70;6.43;;;;;;;7.68;100.00;98804.94;4467807;32;20119;-79
2022/11/06 05:12:40;;;;;;;12.40;6.07;;;;;;;7.66;100.00;98805.03;4469548;32;20100;-79
2022/11/06 05:15:08;;;;;;;12.10;6.35;;;;;;;7.64;100.00;98802.56;4470259;32;20525;-79
2022/11/06 05:17:35;;;;;;;11.52;6.07;;;;;;;7.62;100.00;98803.63;4470187;32;20605;-79
2022/11/06 05:20:03;;;;;;;13.13;6.15;;;;;;;7.77;100.00;98812.03;4470275;32;20089;-79
2022/11/06 05:25:16;;;;;;;14.55;7.53;;;;;;;7.78;100.00;98809.31;4470385;32;20073;-80
2022/11/06 05:27:43;;;;;;;11.48;6.18;;;;;;;7.73;100.00;98815.81;4470078;32;20104;-79
2022/11/06 05:30:11;;;;;;;14.45;6.55;;;;;;;7.79;100.00;98821.38;4470142;32;20179;-79
2022/11/06 05:32:38;;;;;;;14.20;7.25;;;;;;;7.70;100.00;98821.28;4470121;32;20613;-79
2022/11/06 05:35:05;;;;;;;15.15;6.55;;;;;;;7.75;100.00;98824.34;4468943;32;20108;-80
2022/11/06 05:37:32;;;;;;;13.50;6.22;;;;;;;7.72;100.00;98824.59;4469833;32;20115;-79
2022/11/06 05:39:59;;;;;;;13.80;6.75;;;;;;;7.78;100.00;98827.56;4470225;32;20119;-80
2022/11/06 05:42:27;;;;;;;13.77;6.55;;;;;;;7.77;100.00;98822.47;4469822;32;20109;-79
2022/11/06 05:44:54;;;;;;;15.57;6.68;;;;;;;7.81;100.00;98831.69;4469967;32;20096;-80
2022/11/06 05:47:21;;;;;;;12.85;6.20;;;;;;;7.83;100.00;98842.87;4469860;32;20114;-79
2022/11/06 05:49:48;;;;;;;12.37;6.10;;;;;;;7.86;100.00;98841.78;4470073;32;20097;-79
2022/11/06 05:52:15;;;;;;;13.00;6.50;;;;;;;7.90;100.00;98846.66;4469938;32;20172;-80
2022/11/06 05:54:42;;;;;;;13.55;6.55;;;;;;;7.93;100.00;98843.81;4469864;32;20084;-80
2022/11/06 05:57:09;;;;;;;10.80;5.68;;;;;;;7.90;100.00;98851.03;4469900;32;20600;-80
2022/11/06 05:59:36;;;;;;;10.25;5.65;;;;;;;7.92;100.00;98855.19;4481246;32;20101;-80
2022/11/06 06:02:03;;;;;;;11.27;6.12;;;;;;;7.97;100.00;98855.66;4484174;32;20156;-80
2022/11/06 06:04:31;;;;;;;11.38;5.45;;;;;;;7.98;100.00;98865.16;4485976;31;20465;-80
2022/11/06 06:06:58;;;;;;;11.68;5.97;;;;;;;7.99;100.00;98866.81;4485659;31;20152;-81
2022/11/06 06:09:25;;;;;;;11.05;5.55;;;;;;;8.07;100.00;98875.81;4470187;31;20562;-80
2022/11/06 06:11:53;;;;;;;11.73;6.12;;;;;;;8.08;100.00;98877.47;4469674;32;20124;-80
2022/11/06 06:14:20;;;;;;;9.05;5.07;;;;;;;8.07;100.00;98878.44;4469741;32;20155;-81
2022/11/06 06:16:47;;;;;;;11.45;5.12;;;;;;;8.04;100.00;98886.50;4469841;32;20106;-80
2022/11/06 06:19:14;;;;;;;14.13;5.68;;;;;;;8.06;100.00;98884.59;4469701;32;20125;-80
2022/11/06 06:21:41;;;;;;;9.52;5.60;;;;;;;8.02;100.00;98885.78;4469798;32;20547;-80
2022/11/06 06:24:08;;;;;;;10.00;5.20;;;;;;;7.95;100.00;98886.25;4469555;32;20483;-81
2022/11/06 06:26:36;;;;;;;10.18;5.10;;;;;;;7.98;100.00;98885.19;4465034;32;152452;-81
2022/11/06 06:29:03;;;;;;;9.70;5.55;;;;;;;7.97;100.00;98886.97;4469821;32;20160;-80
2022/11/06 06:31:30;;;;;;;10.05;6.03;;;;;;;7.95;100.00;98886.25;4469925;32;20115;-81
2022/11/06 06:33:57;;;;;;;8.93;4.97;;;;;;;7.92;100.00;98891.72;4469734;32;20114;-81
2022/11/06 06:36:24;;;;;;;14.35;5.40;;;;;;;8.00;100.00;98899.78;4469552;32;20114;-81
2022/11/06 06:38:51;;;;;;;15.00;5.60;;;;;;;7.96;100.00;98905.34;4469672;32;20162;-81
2022/11/06 06:41:18;;;;;;;13.50;6.78;;;;;;;7.93;100.00;98896.00;4469625;32;20160;-81
2022/11/06 06:43:49;;;;;;;12.32;5.72;;;;;;;7.89;100.00;98906.75;4469512;32;20474;-82
2022/11/06 06:46:16;;;;;;;14.77;7.10;;;;;;;7.91;100.00;98918.72;4469881;32;20115;-82
2022/11/06 06:48:43;;;;;;;11.52;5.85;;;;;;;7.95;100.00;98911.53;4469614;32;20452;-81
2022/11/06 06:51:10;;;;;;;15.00;6.75;;;;;;;7.90;100.00;98911.87;4469645;32;20114;-81
2022/11/06 06:53:37;;;;;;;13.38;5.50;;;;;;;7.94;100.00;98915.88;4469662;32;20097;-82
2022/11/06 06:56:08;;;;;;;11.68;5.93;;;;;;;7.89;100.00;98922.41;4469764;32;20442;-81
2022/11/06 06:58:35;;;;;;;15.63;6.10;;;;;;;7.90;100.00;98927.53;4474237;32;20165;-82
2022/11/06 07:01:04;;;;;;;11.55;5.93;;;;;;;7.93;100.00;98919.47;4485287;31;20104;-82
2022/11/06 07:03:32;;;;;;;14.27;6.85;;;;;;;7.89;100.00;98923.25;4485176;32;20147;-82
2022/11/06 07:05:59;;;;;;;14.07;6.50;;;;;;;7.90;100.00;98932.75;4485152;31;20577;-83
2022/11/06 07:08:26;;;;;;;14.70;6.53;;;;;;;7.83;100.00;98928.94;4476217;31;20168;-82
2022/11/06 07:11:01;;;;;;;18.95;6.35;;;;;;;7.87;100.00;98930.34;4469629;32;20503;-82
2022/11/06 07:13:28;;;;;;;13.10;6.47;;;;;;;7.93;100.00;98932.50;4469389;32;20069;-82
2022/11/06 07:16:04;;;;;;;17.00;7.37;;;;;;;7.79;100.00;98935.31;4469531;32;20080;-82
2022/11/06 07:18:32;;;;;;;15.10;6.50;;;;;;;7.83;100.00;98936.75;4469397;32;20204;-83
2022/11/06 07:20:59;;;;;;;13.23;6.45;;;;;;;7.87;100.00;98943.38;4469268;32;20149;-82
2022/11/06 07:23:26;;;;;;;13.57;6.45;;;;;;;7.89;100.00;98936.28;4469429;32;20101;-82
2022/11/06 07:25:53;;;;;;;16.12;6.97;;;;;;;7.91;100.00;98942.22;4468174;32;20386;-82
2022/11/06 07:28:20;;;;;;;15.30;7.22;;;;;;;7.96;100.00;98941.87;4469307;32;20152;-82
2022/11/06 07:30:48;;;;;;;13.93;7.00;;;;;;;7.92;100.00;98937.84;4469537;32;20105;-82
2022/11/06 07:33:15;;;;;;;13.48;6.55;;;;;;;7.86;100.00;98946.09;4469404;32;20131;-83
2022/11/06 07:35:43;;;;;;;12.85;6.53;;;;;;;7.91;100.00;98944.81;4466628;32;20188;-83
2022/11/06 07:38:10;;;;;;;16.75;7.03;;;;;;;7.92;100.00;98946.50;4468972;32;20092;-82
2022/11/06 07:40:37;;;;;;;13.48;7.60;;;;;;;7.93;100.00;98949.91;4469150;32;20134;-82
2022/11/06 07:43:06;;;;;;;15.85;8.30;;;;;;;7.93;100.00;98956.00;4468964;32;20085;-82
2022/11/06 07:45:33;;;;;;;16.52;7.85;;;;;;;7.91;100.00;98960.47;4469040;32;20100;-83
2022/11/06 07:48:01;;;;;;;15.40;7.28;;;;;;;7.89;100.00;98951.94;4469294;32;20151;-82
2022/11/06 07:50:28;;;;;;;16.00;7.72;;;;;;;7.90;100.00;98953.62;4469232;32;20101;-82
2022/11/06 07:52:56;;;;;;;13.20;7.05;;;;;;;7.96;100.00;98958.38;4469019;32;20096;-82
2022/11/06 07:55:23;;;;;;;17.55;7.95;;;;;;;7.93;100.00;98953.38;4469069;32;20097;-82
2022/11/06 07:57:50;;;;;;;14.18;7.35;;;;;;;7.89;100.00;98951.94;4468820;32;20155;-82
2022/11/06 08:00:17;;;;;;;14.50;7.22;;;;;;;7.98;100.00;98950.41;4484411;32;20096;-82
2022/11/06 08:02:49;;;;;;;15.57;8.10;;;;;;;7.85;100.00;98955.72;4484576;31;20213;-82
2022/11/06 08:05:16;;;;;;;16.10;8.23;;;;;;;7.89;100.00;98957.16;4484470;31;20076;-82
2022/11/06 08:07:43;;;;;;;17.00;9.43;;;;;;;7.91;100.00;98955.25;4480617;31;20164;-82
2022/11/06 08:10:11;;;;;;;16.90;8.80;;;;;;;7.94;100.00;98956.81;4468730;32;20096;-82
2022/11/06 08:12:38;;;;;;;21.12;8.80;;;;;;;8.00;100.00;98954.56;4468855;32;20089;-82
2022/11/06 08:15:05;;;;;;;15.27;7.55;;;;;;;7.98;100.00;98946.03;4468689;32;20110;-82
2022/11/06 08:17:33;;;;;;;15.90;8.32;;;;;;;8.06;100.00;98949.84;4468702;32;20385;-82
2022/11/06 08:20:00;;;;;;;15.40;8.00;;;;;;;8.11;100.00;98955.53;4468509;32;20101;-82
2022/11/06 08:22:27;;;;;;;14.85;7.90;;;;;;;8.16;100.00;98954.22;4468534;32;20429;-82
2022/11/06 08:24:54;;;;;;;16.60;7.95;;;;;;;8.18;100.00;98957.53;4468573;32;20619;-82
2022/11/06 08:27:21;;;;;;;15.50;7.85;;;;;;;8.14;100.00;98963.13;4468596;32;20088;-83
2022/11/06 08:29:48;;;;;;;17.33;7.68;;;;;;;8.16;100.00;98953.38;4468392;32;20093;-82
2022/11/06 08:32:15;;;;;;;17.15;8.07;;;;;;;8.21;100.00;98966.94;4468477;32;20491;-82
2022/11/06 08:34:42;;;;;;;16.02;8.35;;;;;;;8.17;100.00;98955.06;4468404;32;20107;-82
2022/11/06 08:37:10;;;;;;;17.67;8.77;;;;;;;8.26;100.00;98951.75;4468296;32;20511;-82
2022/11/06 08:39:37;;;;;;;14.02;7.93;;;;;;;8.23;100.00;98953.75;4468327;32;20143;-83
2022/11/06 08:42:05;;;;;;;13.13;7.32;;;;;;;8.22;100.00;98952.09;4468103;32;20093;-82
2022/11/06 08:44:32;;;;;;;14.35;7.37;;;;;;;8.26;100.00;98953.53;4468199;32;20093;-82
2022/11/06 08:47:00;;;;;;;12.70;6.40;;;;;;;8.38;100.00;98954.38;4469533;32;20530;-83
2022/11/06 08:49:27;;;;;;;15.23;7.93;;;;;;;8.45;100.00;98950.38;4470272;32;20101;-82
2022/11/06 08:51:54;;;;;;;11.55;6.43;;;;;;;8.58;100.00;98956.28;4470341;32;20531;-82
2022/11/06 08:54:21;;;;;;;12.45;7.15;;;;;;;8.63;100.00;98959.38;4470408;32;20206;-82
2022/11/06 08:56:48;;;;;;;12.90;6.97;;;;;;;8.70;100.00;98963.19;4470383;32;20173;-82
2022/11/06 08:59:15;;;;;;;11.68;6.03;;;;;;;8.67;100.00;98957.34;4479045;32;20600;-82
2022/11/06 09:01:42;;;;;;;12.45;6.60;;;;;;;8.70;100.00;98959.72;4485808;31;20152;-82
2022/11/06 09:04:10;;;;;;;12.93;6.82;;;;;;;8.78;100.00;98969.56;4485965;31;20088;-83
2022/11/06 09:06:37;;;;;;;14.02;6.90;;;;;;;8.85;100.00;98966.34;4486043;31;20104;-82
2022/11/06 09:09:04;;;;;;;12.05;6.35;;;;;;;8.88;100.00;98962.66;4472834;31;20112;-82
2022/11/06 09:11:31;;;;;;;11.75;6.50;;;;;;;8.92;100.00;98958.88;4469954;32;20114;-82
2022/11/06 09:13:58;;;;;;;11.88;6.22;;;;;;;9.03;100.00;98968.47;4470176;32;20148;-83
2022/11/06 09:16:26;;;;;;;11.77;6.85;;;;;;;9.04;100.00;98962.28;4470459;32;20517;-82
2022/11/06 09:18:54;;;;;;;12.15;6.78;;;;;;;9.03;100.00;98958.00;4470392;32;20180;-82
2022/11/06 09:21:22;;;;;;;13.62;6.00;;;;;;;9.09;100.00;98951.47;4469933;32;20093;-82
2022/11/06 09:23:49;;;;;;;10.43;5.97;;;;;;;9.18;100.00;98962.00;4470310;32;20116;-82
2022/11/06 09:26:16;;;;;;;10.63;6.25;;;;;;;9.20;100.00;98961.88;4470230;32;20118;-82
2022/11/06 09:28:43;;;;;;;10.40;5.85;;;;;;;9.29;100.00;98958.50;4470646;32;20116;-82
2022/11/06 09:31:10;;;;;;;9.25;5.43;;;;;;;9.48;100.00;98957.84;4470291;32;20122;-82
2022/11/06 09:33:38;;;;;;;8.60;4.90;;;;;;;9.40;100.00;98961.09;4470128;32;20092;-81
2022/11/06 09:36:05;;;;;;;15.90;5.05;;;;;;;9.48;100.00;98955.25;4469735;32;20096;-81
2022/11/06 09:38:33;;;;;;;7.70;4.50;;;;;;;9.51;100.00;98954.16;4470191;32;20096;-82
2022/11/06 09:41:01;;;;;;;9.90;4.65;;;;;;;9.62;100.00;98954.09;4469770;32;20127;-81
2022/11/06 09:44:00;;;;;;;10.30;6.37;;;;;;;9.71;100.00;98952.53;4470046;32;20093;-81
2022/11/06 09:46:41;;;;;;;10.93;5.00;;;;;;;9.84;100.00;98945.31;4470052;32;20088;-82
2022/11/06 09:49:20;;;;;;;6.95;4.60;;;;;;;9.91;100.00;98950.84;4470189;32;20111;-81
2022/11/06 09:51:51;;;;;;;8.88;4.82;;;;;;;9.94;100.00;98947.97;4469974;32;20104;-82
2022/11/06 09:54:22;;;;;;;10.55;5.78;;;;;;;9.94;100.00;98948.81;4470133;32;20072;-81
2022/11/06 09:56:54;;;;;;;8.95;4.87;;;;;;;10.21;100.00;98942.19;4468686;32;20160;-81
2022/11/06 09:59:22;;;;;;;8.63;5.18;;;;;;;10.25;100.00;98948.00;4458455;32;20144;-81
2022/11/06 10:01:54;;;;;;;15.07;6.22;;;;;;;10.16;100.00;98947.00;4454040;32;20085;-81
2022/11/06 10:04:39;;;;;;;12.15;6.03;;;;;;;10.20;100.00;98947.56;4453210;32;20077;-82
2022/11/06 10:07:21;;;;;;;7.78;4.93;;;;;;;10.29;100.00;98952.03;4454229;32;20495;-82
2022/11/06 10:09:48;;;;;;;9.52;5.60;;;;;;;10.26;100.00;98949.66;4468744;32;20149;-81
2022/11/06 10:12:27;;;;;;;9.88;4.78;;;;;;;10.38;100.00;98939.97;4469610;32;20184;-80
2022/11/06 10:14:57;;;;;;;8.48;4.85;;;;;;;10.50;100.00;98930.22;4469836;32;20120;-81
2022/11/06 10:17:44;;;;;;;9.32;5.32;;;;;;;10.64;100.00;98935.09;4469777;32;20138;-81
2022/11/06 10:20:20;;;;;;;10.52;5.18;;;;;;;10.65;100.00;98942.00;4421091;32;20128;-81
2022/11/06 10:23:35;;;;;;;9.30;5.75;;;;;;;10.72;100.00;98943.13;4421025;32;20435;-81
2022/11/06 10:26:16;;;;;;;11.18;6.22;;;;;;;10.95;100.00;98937.66;4360638;32;20118;-81
2022/11/06 10:29:00;;;;;;;14.20;6.25;;;;;;;10.77;100.00;98935.69;4360688;32;20498;-81
2022/11/06 10:32:00;;;;;;;10.52;5.62;;;;;;;10.56;100.00;98938.38;4360542;32;20246;-81
2022/11/06 10:34:45;;;;;;;8.02;5.00;;;;;;;10.64;100.00;98940.31;4360553;32;20095;-81
2022/11/06 10:37:20;;;;;;;9.65;5.37;;;;;;;10.56;100.00;98932.31;4360214;32;20153;-80
2022/11/06 10:39:48;;;;;;;10.20;4.72;;;;;;;10.58;100.00;98927.75;4360526;32;20103;-81
2022/11/06 10:42:17;;;;;;;9.68;5.10;;;;;;;10.68;100.00;98927.81;4360218;32;20635;-80
2022/11/06 10:44:53;;;;;;;9.25;4.93;;;;;;;10.71;100.00;98925.75;4360324;32;20102;-80
2022/11/06 10:47:22;;;;;;;11.20;5.80;;;;;;;10.70;100.00;98924.06;4360491;32;20106;-80
2022/11/06 10:49:54;;;;;;;12.52;5.10;;;;;;;10.67;100.00;98924.34;4360396;32;20095;-81
2022/11/06 10:52:31;;;;;;;12.45;6.18;;;;;;;10.67;100.00;98926.13;4360439;32;20233;-81
2022/11/06 10:55:35;;;;;;;10.82;5.93;;;;;;;10.73;100.00;98921.19;4360432;32;20188;-80
2022/11/06 10:58:05;;;;;;;9.27;5.68;;;;;;;10.92;100.00;98923.03;4394229;32;20240;-81
2022/11/06 11:00:32;;;;;;;9.98;5.50;;;;;;;10.97;100.00;98918.19;4378002;32;20931;-80
2022/11/06 11:03:05;;;;;;;12.68;6.43;;;;;;;10.98;100.00;98913.78;4439854;32;20085;-81
2022/11/06 11:05:41;;;;;;;11.70;5.00;;;;;;;11.04;100.00;98918.50;4454119;32;20207;-80
2022/11/06 11:08:30;;;;;;;9.48;4.97;;;;;;;11.05;100.00;98909.66;4460549;32;20092;-80
2022/11/06 11:11:05;;;;;;;10.13;5.25;;;;;;;11.07;100.00;98907.72;4469131;32;20093;-81
2022/11/06 11:13:32;;;;;;;11.12;5.80;;;;;;;11.09;100.00;98908.41;4468088;32;20172;-81
2022/11/06 11:16:01;;;;;;;9.68;6.37;;;;;;;11.14;100.00;98908.00;4469386;32;20489;-81
2022/11/06 11:18:32;;;;;;;10.07;6.15;;;;;;;11.16;100.00;98914.78;4469396;32;20088;-81
2022/11/06 11:21:16;;;;;;;10.70;4.45;;;;;;;11.12;100.00;98907.31;4469238;32;20506;-81
2022/11/06 11:23:44;;;;;;;10.32;4.95;;;;;;;11.08;100.00;98912.03;4469400;32;20109;-81
2022/11/06 11:26:17;;;;;;;6.57;4.00;;;;;;;11.06;100.00;98913.94;4469371;32;20116;-81
2022/11/06 11:28:53;;;;;;;7.25;4.68;;;;;;;11.04;100.00;98909.78;4469425;32;20095;-81
2022/11/06 11:31:28;;;;;;;8.35;4.50;;;;;;;11.16;100.00;98920.03;4468116;32;20152;-81
2022/11/06 11:33:58;;;;;;;14.35;7.75;;;;;;;11.20;100.00;98917.94;4469439;32;20394;-81
2022/11/06 11:36:25;;;;;;;14.18;8.10;;;;;;;11.28;100.00;98922.50;4469059;32;20167;-81
2022/11/06 11:38:55;;;;;;;13.85;7.90;;;;;;;11.30;100.00;98918.78;4469548;32;20150;-81
2022/11/06 11:41:23;;;;;;;13.75;7.75;;;;;;;11.42;100.00;98911.59;4469386;32;20148;-81
2022/11/06 11:44:04;;;;;;;16.17;8.63;;;;;;;11.39;100.00;98914.50;4468013;32;20398;-81
2022/11/06 11:46:32;;;;;;;17.08;7.65;;;;;;;11.39;100.00;98909.25;4469204;32;20085;-82
2022/11/06 11:49:01;;;;;;;11.45;7.07;;;;;;;11.27;100.00;98910.37;4469355;32;20760;-81
2022/11/06 11:51:35;;;;;;;11.57;6.90;;;;;;;11.25;100.00;98901.78;4469158;32;20107;-81
2022/11/06 11:54:18;;;;;;;12.50;7.15;;;;;;;11.21;100.00;98905.69;4467982;32;20080;-82
2022/11/06 11:57:01;;;;;;;14.75;7.78;;;;;;;11.22;100.00;98905.53;4468983;32;20085;-81